AVA292 MMMX-SKRG
Flight info
| Callsign | AVA292 |
|---|---|
| Flight time | N/A |
| Altitude | 37000 |
| Route | UKUNO2B UKUNO UT108 VER DCT UGATA DCT ASOKU UM419 ANSON/N0451F380 UM419 AROVI/N0450F390 UM419 TBG UP790 KUBEK/N0386F240 B510 LCE/N0380F230 B689 OPMEL OPMEL4A |
| Aircraft | A20N/M-SDE2E3FGHIRWXY/LB1 |
Departure
| Time | N/A |
|---|---|
| Airport | Mexico City Benito Juárez International Airport (MMMX) |
Arrival
| Time | 2026-04-24 21:52 |
|---|---|
| Airport | Jose Maria Córdova International Airport (SKRG) |
| Time | Latitude | Longitude | Altitude | Speed | Heading |
|---|---|---|---|---|---|
| 2026-04-24 21:19 | 7.85063 | -76.79887 | 38920 ft | 436 kts | 118° |
| 2026-04-24 21:19 | 7.82029 | -76.74636 | 38928 ft | 432 kts | 128° |
| 2026-04-24 21:20 | 7.75892 | -76.68046 | 38946 ft | 427 kts | 143° |
| 2026-04-24 21:21 | 7.71094 | -76.64520 | 38957 ft | 426 kts | 147° |
| 2026-04-24 21:21 | 7.66249 | -76.61086 | 38963 ft | 427 kts | 147° |
| 2026-04-24 21:22 | 7.61404 | -76.57645 | 38976 ft | 426 kts | 147° |
| 2026-04-24 21:22 | 7.56550 | -76.54194 | 38988 ft | 426 kts | 146° |
| 2026-04-24 21:23 | 7.51706 | -76.50748 | 39004 ft | 427 kts | 147° |
| 2026-04-24 21:23 | 7.46820 | -76.47270 | 39001 ft | 427 kts | 147° |
| 2026-04-24 21:24 | 7.41969 | -76.43820 | 39009 ft | 428 kts | 147° |
| 2026-04-24 21:24 | 7.37104 | -76.40360 | 39036 ft | 427 kts | 147° |
| 2026-04-24 21:25 | 7.32246 | -76.36906 | 39073 ft | 427 kts | 147° |
| 2026-04-24 21:25 | 7.27390 | -76.33454 | 39139 ft | 427 kts | 147° |
| 2026-04-24 21:26 | 7.22532 | -76.30002 | 39218 ft | 428 kts | 147° |
| 2026-04-24 21:26 | 7.17666 | -76.26546 | 39226 ft | 427 kts | 147° |
| 2026-04-24 21:27 | 7.12825 | -76.23108 | 39242 ft | 427 kts | 147° |
| 2026-04-24 21:27 | 7.07945 | -76.19643 | 39020 ft | 428 kts | 147° |
| 2026-04-24 21:27 | 7.06310 | -76.18481 | 38749 ft | 427 kts | 147° |
| 2026-04-24 21:28 | 7.03090 | -76.16194 | 38120 ft | 422 kts | 147° |
| 2026-04-24 21:28 | 7.00697 | -76.14497 | 37510 ft | 421 kts | 146° |
| 2026-04-24 21:28 | 6.98324 | -76.12814 | 36899 ft | 421 kts | 146° |
| 2026-04-24 21:28 | 6.95908 | -76.11099 | 36274 ft | 420 kts | 146° |
| 2026-04-24 21:29 | 6.93544 | -76.09422 | 35623 ft | 420 kts | 146° |
| 2026-04-24 21:29 | 6.91138 | -76.07716 | 34996 ft | 419 kts | 145° |
| 2026-04-24 21:29 | 6.88759 | -76.06027 | 34393 ft | 417 kts | 145° |
| 2026-04-24 21:29 | 6.86417 | -76.04365 | 33800 ft | 415 kts | 145° |
| 2026-04-24 21:30 | 6.84047 | -76.02682 | 33190 ft | 413 kts | 145° |
| 2026-04-24 21:30 | 6.81695 | -76.01014 | 32598 ft | 414 kts | 144° |
| 2026-04-24 21:30 | 6.79357 | -75.99354 | 31998 ft | 415 kts | 145° |
| 2026-04-24 21:30 | 6.77013 | -75.97645 | 31348 ft | 416 kts | 142° |
| 2026-04-24 21:31 | 6.74755 | -75.95779 | 30642 ft | 418 kts | 139° |
| 2026-04-24 21:31 | 6.72649 | -75.93791 | 29938 ft | 421 kts | 135° |
| 2026-04-24 21:31 | 6.70649 | -75.91640 | 29137 ft | 425 kts | 131° |
| 2026-04-24 21:31 | 6.68745 | -75.89365 | 28475 ft | 425 kts | 130° |
| 2026-04-24 21:32 | 6.66848 | -75.87062 | 27980 ft | 422 kts | 130° |
| 2026-04-24 21:32 | 6.64998 | -75.84810 | 27490 ft | 419 kts | 130° |
| 2026-04-24 21:32 | 6.63157 | -75.82570 | 26991 ft | 416 kts | 129° |
| 2026-04-24 21:32 | 6.61303 | -75.80318 | 26490 ft | 414 kts | 129° |
| 2026-04-24 21:33 | 6.59483 | -75.78108 | 25993 ft | 411 kts | 129° |
| 2026-04-24 21:33 | 6.58271 | -75.76637 | 25660 ft | 410 kts | 129° |
| 2026-04-24 21:33 | 6.55844 | -75.73692 | 24992 ft | 407 kts | 129° |
| 2026-04-24 21:33 | 6.54051 | -75.71518 | 24499 ft | 406 kts | 129° |
| 2026-04-24 21:34 | 6.52257 | -75.69344 | 24010 ft | 404 kts | 129° |
| 2026-04-24 21:34 | 6.50464 | -75.67168 | 23518 ft | 402 kts | 129° |
| 2026-04-24 21:34 | 6.48680 | -75.65004 | 23037 ft | 401 kts | 129° |
| 2026-04-24 21:34 | 6.46907 | -75.62852 | 22564 ft | 399 kts | 129° |
| 2026-04-24 21:35 | 6.45132 | -75.60702 | 22105 ft | 398 kts | 129° |
| 2026-04-24 21:35 | 6.43377 | -75.58574 | 21655 ft | 396 kts | 129° |
| 2026-04-24 21:35 | 6.41599 | -75.56461 | 21186 ft | 396 kts | 133° |
| 2026-04-24 21:35 | 6.39423 | -75.54832 | 20679 ft | 395 kts | 154° |
| 2026-04-24 21:36 | 6.36790 | -75.54049 | 20204 ft | 392 kts | 174° |
| 2026-04-24 21:36 | 6.34072 | -75.53957 | 19744 ft | 390 kts | 180° |
| 2026-04-24 21:36 | 6.31360 | -75.53942 | 19266 ft | 388 kts | 180° |
| 2026-04-24 21:36 | 6.28672 | -75.53921 | 18792 ft | 387 kts | 180° |
| 2026-04-24 21:37 | 6.25973 | -75.53889 | 18316 ft | 385 kts | 180° |
| 2026-04-24 21:37 | 6.23305 | -75.53848 | 17836 ft | 383 kts | 180° |
| 2026-04-24 21:37 | 6.20628 | -75.53805 | 17353 ft | 380 kts | 179° |
| 2026-04-24 21:37 | 6.18003 | -75.53760 | 16879 ft | 378 kts | 180° |
| 2026-04-24 21:38 | 6.15352 | -75.53712 | 16392 ft | 376 kts | 180° |
| 2026-04-24 21:38 | 6.12728 | -75.53665 | 15910 ft | 374 kts | 180° |
| 2026-04-24 21:38 | 6.10130 | -75.53659 | 15434 ft | 371 kts | 181° |
| 2026-04-24 21:38 | 6.07576 | -75.53685 | 14966 ft | 369 kts | 182° |
| 2026-04-24 21:39 | 6.05002 | -75.53716 | 14488 ft | 366 kts | 181° |
| 2026-04-24 21:39 | 6.02478 | -75.53745 | 14039 ft | 362 kts | 181° |
| 2026-04-24 21:39 | 5.99966 | -75.53773 | 13873 ft | 351 kts | 181° |
| 2026-04-24 21:39 | 5.97552 | -75.53796 | 13708 ft | 345 kts | 181° |
| 2026-04-24 21:40 | 5.95161 | -75.53818 | 13535 ft | 340 kts | 181° |
| 2026-04-24 21:40 | 5.92775 | -75.53840 | 13390 ft | 336 kts | 181° |
| 2026-04-24 21:40 | 5.90460 | -75.53788 | 13232 ft | 325 kts | 172° |
| 2026-04-24 21:40 | 5.88443 | -75.52958 | 13067 ft | 305 kts | 140° |
| 2026-04-24 21:41 | 5.87238 | -75.51314 | 13038 ft | 288 kts | 108° |
| 2026-04-24 21:41 | 5.87068 | -75.49362 | 13052 ft | 280 kts | 84° |
| 2026-04-24 21:41 | 5.87288 | -75.47433 | 13047 ft | 277 kts | 84° |
| 2026-04-24 21:41 | 5.87495 | -75.45524 | 13046 ft | 274 kts | 77° |
| 2026-04-24 21:42 | 5.88261 | -75.43778 | 13049 ft | 272 kts | 50° |
| 2026-04-24 21:42 | 5.89700 | -75.42587 | 13034 ft | 269 kts | 23° |
| 2026-04-24 21:42 | 5.91509 | -75.42142 | 13032 ft | 266 kts | 359° |
| 2026-04-24 21:42 | 5.93361 | -75.42162 | 13053 ft | 266 kts | 357° |
| 2026-04-24 21:43 | 5.95221 | -75.42209 | 13054 ft | 266 kts | 357° |
| 2026-04-24 21:43 | 5.97093 | -75.42244 | 13095 ft | 266 kts | 357° |
| 2026-04-24 21:43 | 5.98935 | -75.42265 | 13118 ft | 266 kts | 358° |
| 2026-04-24 21:43 | 6.00800 | -75.42278 | 13095 ft | 266 kts | 358° |
| 2026-04-24 21:44 | 6.02652 | -75.42284 | 13079 ft | 266 kts | 358° |
| 2026-04-24 21:44 | 6.04528 | -75.42292 | 13078 ft | 266 kts | 358° |
| 2026-04-24 21:44 | 6.06385 | -75.42299 | 13089 ft | 265 kts | 358° |
| 2026-04-24 21:44 | 6.08202 | -75.42107 | 13086 ft | 267 kts | 20° |
| 2026-04-24 21:45 | 6.09752 | -75.41057 | 12860 ft | 270 kts | 47° |
| 2026-04-24 21:45 | 6.11003 | -75.39626 | 12535 ft | 270 kts | 47° |
| 2026-04-24 21:45 | 6.12242 | -75.38227 | 12199 ft | 264 kts | 47° |
| 2026-04-24 21:45 | 6.13464 | -75.36884 | 11898 ft | 259 kts | 47° |
| 2026-04-24 21:46 | 6.14677 | -75.35564 | 11647 ft | 250 kts | 47° |
| 2026-04-24 21:46 | 6.15903 | -75.34406 | 11592 ft | 234 kts | 27° |
| 2026-04-24 21:46 | 6.17446 | -75.34010 | 11434 ft | 230 kts | 358° |
| 2026-04-24 21:46 | 6.19047 | -75.34047 | 11268 ft | 228 kts | 358° |
| 2026-04-24 21:47 | 6.20639 | -75.34064 | 10985 ft | 225 kts | 359° |
| 2026-04-24 21:47 | 6.21676 | -75.34061 | 10733 ft | 225 kts | 359° |
| 2026-04-24 21:47 | 6.23696 | -75.34045 | 10419 ft | 207 kts | 359° |
| 2026-04-24 21:47 | 6.25108 | -75.34077 | 10172 ft | 193 kts | 347° |
| 2026-04-24 21:48 | 6.26184 | -75.34738 | 10017 ft | 185 kts | 308° |
| 2026-04-24 21:48 | 6.26968 | -75.35790 | 10029 ft | 187 kts | 306° |
| 2026-04-24 21:48 | 6.27738 | -75.36846 | 10012 ft | 187 kts | 299° |
| 2026-04-24 21:48 | 6.27956 | -75.38097 | 9847 ft | 187 kts | 254° |
| 2026-04-24 21:49 | 6.27350 | -75.39243 | 9717 ft | 185 kts | 238° |
| 2026-04-24 21:49 | 6.26697 | -75.40310 | 9554 ft | 175 kts | 240° |
| 2026-04-24 21:49 | 6.26106 | -75.41328 | 9373 ft | 161 kts | 241° |
| 2026-04-24 21:49 | 6.25438 | -75.42208 | 9154 ft | 160 kts | 212° |
| 2026-04-24 21:50 | 6.24375 | -75.42454 | 8892 ft | 159 kts | 178° |
| 2026-04-24 21:50 | 6.23269 | -75.42385 | 8603 ft | 159 kts | 177° |
| 2026-04-24 21:50 | 6.22163 | -75.42329 | 8283 ft | 159 kts | 178° |
| 2026-04-24 21:50 | 6.21049 | -75.42316 | 7851 ft | 159 kts | 181° |
| 2026-04-24 21:51 | 6.19970 | -75.42332 | 7509 ft | 154 kts | 180° |
| 2026-04-24 21:51 | 6.18896 | -75.42322 | 7251 ft | 154 kts | 180° |
| 2026-04-24 21:51 | 6.17815 | -75.42320 | 7013 ft | 153 kts | 180° |
| 2026-04-24 21:51 | 6.16832 | -75.42314 | 6979 ft | 122 kts | 179° |
| 2026-04-24 21:52 | 6.16136 | -75.42309 | 6964 ft | 84 kts | 180° |
| 2026-04-24 21:52 | 6.15601 | -75.42307 | 6957 ft | 69 kts | 180° |
| 2026-04-24 21:52 | 6.15191 | -75.42304 | 6954 ft | 44 kts | 180° |
| 2026-04-24 21:52 | 6.14989 | -75.42304 | 6954 ft | 19 kts | 187° |
| 2026-04-24 21:53 | 6.14891 | -75.42374 | 6953 ft | 16 kts | 255° |
| 2026-04-24 21:53 | 6.14909 | -75.42467 | 6954 ft | 13 kts | 331° |
| 2026-04-24 21:53 | 6.15001 | -75.42474 | 6954 ft | 13 kts | 0° |
| 2026-04-24 21:53 | 6.15103 | -75.42474 | 6954 ft | 17 kts | 359° |
| 2026-04-24 21:54 | 6.15244 | -75.42476 | 6955 ft | 22 kts | 360° |
| 2026-04-24 21:54 | 6.15417 | -75.42477 | 6956 ft | 27 kts | 359° |
| 2026-04-24 21:54 | 6.15619 | -75.42478 | 6957 ft | 30 kts | 359° |
| 2026-04-24 21:54 | 6.15844 | -75.42479 | 6959 ft | 33 kts | 359° |
| 2026-04-24 21:55 | 6.16086 | -75.42480 | 6963 ft | 35 kts | 359° |
| 2026-04-24 21:55 | 6.16335 | -75.42482 | 6968 ft | 34 kts | 359° |
| 2026-04-24 21:55 | 6.16558 | -75.42484 | 6974 ft | 29 kts | 359° |
| 2026-04-24 21:55 | 6.16750 | -75.42485 | 6979 ft | 25 kts | 359° |
| 2026-04-24 21:56 | 6.16904 | -75.42507 | 6983 ft | 20 kts | 329° |
| 2026-04-24 21:56 | 6.17018 | -75.42574 | 6986 ft | 17 kts | 329° |
| 2026-04-24 21:56 | 6.17051 | -75.42659 | 6987 ft | 12 kts | 280° |
| 2026-04-24 21:56 | 6.17062 | -75.42692 | 6988 ft | 0 kts | 292° |